Wilson Clyde — 8PRV — position and weather

sailwx.info

Track history (hours):
 
Tides and Currents Weather Stations Pressure Air Temp Water Temp Dewpoint Dewpoint Depression Visibility Wind Speed Wind Dir Waves Ship Positions

Wilson Clyde

Last reported at 2016-Sep-26 08:32 UTC. Time now 2016-Sep-26 15:42 UTC.
Position N 57°42' E 010°45'.

Length 100 m; draft 4.7 m.

Type: Cargo ship. MMSI: 314187000.

Date/timePositionNaut miles runAvg speedWind from/ knotsBaromVisibWave heightAir tempDewpointWater temp
2016-Sep-26 08:32N 57°42' E 010°45'12711.6
2016-Sep-25 21:33N 57°58' E 006°48'36 9.1
2016-Sep-25 17:33N 58°19' E 005°52'7 6.7
2016-Sep-25 16:33N 58°26' E 005°50'3 3.3
2016-Sep-25 15:31N 58°28' E 005°55'0 0.0
2016-Sep-25 14:31N 58°28' E 005°55'0 0.0
2016-Sep-25 12:33N 58°28' E 005°55'0 0.0
2016-Sep-25 11:33N 58°28' E 005°55'0 0.0
2016-Sep-25 10:34N 58°28' E 005°55'0 0.0
2016-Sep-25 09:33N 58°28' E 005°55'0 0.0
2016-Sep-25 07:33N 58°28' E 005°55'2 0.7
2016-Sep-25 04:33N 58°27' E 005°51'29 7.3
2016-Sep-25 00:30N 58°04' E 006°27'17 8.9
2016-Sep-24 22:33N 57°56' E 006°56'49 7.6
2016-Sep-24 16:09N 58°02' E 008°27'13 7.9
2016-Sep-24 14:33N 58°08' E 008°49'53 1.8
2016-Sep-23 09:33N 58°52' E 009°45'5010.1
2016-Sep-23 04:33N 58°14' E 008°42'1010.0
2016-Sep-23 03:33N 58°06' E 008°29'63 9.1
2016-Sep-22 20:33N 58°03' E 006°29'79 9.8
2016-Sep-22 12:33N 59°04' E 004°54'  
2016-Sep-20 08:28N 66°33' E 011°39'81 9.0
2016-Sep-19 23:28N 67°31' E 014°02'6 0.3
2016-Sep-19 03:33N 67°34' E 014°16'1110.7
2016-Sep-19 02:33N 67°44' E 014°11'  
2016-Sep-16 12:33N 66°32' E 011°36'  
Track history (hours):
 
Tides and Currents Weather Stations Pressure Air Temp Water Temp Dewpoint Dewpoint Depression Visibility Wind Speed Wind Dir Waves Ship Positions

Wilson Clyde

Last reported at 2016-Sep-26 08:32 UTC. Time now 2016-Sep-26 15:42 UTC.
Position N 57°42' E 010°45'.

Length 100 m; draft 4.7 m.

Type: Cargo ship. MMSI: 314187000.

Date/timePositionNaut miles runAvg speedWind from/ knotsBaromVisibWave heightAir tempDewpointWater temp
2016-Sep-26 08:32N 57°42' E 010°45'12711.6
2016-Sep-25 21:33N 57°58' E 006°48'36 9.1
2016-Sep-25 17:33N 58°19' E 005°52'7 6.7
2016-Sep-25 16:33N 58°26' E 005°50'3 3.3
2016-Sep-25 15:31N 58°28' E 005°55'0 0.0
2016-Sep-25 14:31N 58°28' E 005°55'0 0.0
2016-Sep-25 12:33N 58°28' E 005°55'0 0.0
2016-Sep-25 11:33N 58°28' E 005°55'0 0.0
2016-Sep-25 10:34N 58°28' E 005°55'0 0.0
2016-Sep-25 09:33N 58°28' E 005°55'0 0.0
2016-Sep-25 07:33N 58°28' E 005°55'2 0.7
2016-Sep-25 04:33N 58°27' E 005°51'29 7.3
2016-Sep-25 00:30N 58°04' E 006°27'17 8.9
2016-Sep-24 22:33N 57°56' E 006°56'49 7.6
2016-Sep-24 16:09N 58°02' E 008°27'13 7.9
2016-Sep-24 14:33N 58°08' E 008°49'53 1.8
2016-Sep-23 09:33N 58°52' E 009°45'5010.1
2016-Sep-23 04:33N 58°14' E 008°42'1010.0
2016-Sep-23 03:33N 58°06' E 008°29'63 9.1
2016-Sep-22 20:33N 58°03' E 006°29'79 9.8
2016-Sep-22 12:33N 59°04' E 004°54'  
2016-Sep-20 08:28N 66°33' E 011°39'81 9.0
2016-Sep-19 23:28N 67°31' E 014°02'6 0.3
2016-Sep-19 03:33N 67°34' E 014°16'1110.7
2016-Sep-19 02:33N 67°44' E 014°11'  
2016-Sep-16 12:33N 66°32' E 011°36'  

Dump ship's entire track history